createdAt,value
2018-12-19T00:02:02.565Z,71.89
2018-12-19T00:04:29.643Z,72.12
2018-12-19T00:06:56.690Z,71.87
2018-12-19T00:09:23.769Z,71.67
2018-12-19T00:11:50.880Z,71.78
2018-12-19T00:14:17.932Z,71.57
2018-12-19T00:16:44.979Z,71.15
2018-12-19T00:19:12.058Z,72.46
2018-12-19T00:21:39.563Z,73.00
2018-12-19T00:24:06.764Z,73.69
2018-12-19T00:26:33.865Z,73.52
2018-12-19T00:29:00.975Z,73.30
2018-12-19T00:31:28.063Z,72.77
2018-12-19T00:33:55.176Z,71.68
2018-12-19T00:36:22.303Z,72.02
2018-12-19T00:38:49.371Z,71.20
2018-12-19T00:41:16.439Z,71.16
2018-12-19T00:43:43.538Z,71.12
2018-12-19T00:46:11.323Z,71.18
2018-12-19T00:48:38.477Z,70.79
2018-12-19T00:51:05.584Z,70.44
2018-12-19T00:53:34.977Z,71.08
2018-12-19T00:56:03.000Z,71.38
2018-12-19T00:58:30.298Z,71.51
2018-12-19T01:00:57.384Z,71.57
2018-12-19T01:03:24.476Z,71.17
2018-12-19T01:05:51.638Z,71.06
2018-12-19T01:08:18.776Z,71.39
2018-12-19T01:10:45.853Z,72.03
2018-12-19T01:13:12.928Z,71.91
2018-12-19T01:15:39.991Z,72.25
2018-12-19T01:18:07.097Z,72.00
2018-12-19T01:20:34.169Z,72.32
2018-12-19T01:23:01.293Z,72.33
2018-12-19T01:25:28.339Z,72.21
2018-12-19T01:27:55.379Z,72.12
2018-12-19T01:30:22.539Z,71.55
2018-12-19T01:32:49.583Z,71.24
2018-12-19T01:35:16.643Z,71.27
2018-12-19T01:37:43.723Z,72.36
2018-12-19T01:40:10.772Z,72.10
2018-12-19T01:42:37.865Z,71.36
2018-12-19T01:45:05.288Z,71.39
2018-12-19T01:47:32.372Z,71.49
2018-12-19T01:49:59.437Z,71.13
2018-12-19T01:52:26.511Z,70.57
2018-12-19T01:54:53.603Z,70.68
2018-12-19T01:57:20.657Z,70.60
2018-12-19T01:59:47.730Z,70.42
2018-12-19T02:02:15.007Z,70.53
2018-12-19T02:04:42.096Z,71.02
2018-12-19T02:07:09.507Z,70.76
2018-12-19T02:09:36.560Z,70.51
2018-12-19T02:12:03.787Z,70.95
2018-12-19T02:14:30.850Z,71.01
2018-12-19T02:16:58.007Z,70.87
2018-12-19T02:19:25.064Z,71.56
2018-12-19T02:21:52.149Z,71.56
2018-12-19T02:24:19.224Z,71.26
2018-12-19T02:26:46.307Z,71.47
2018-12-19T02:29:13.395Z,71.89
2018-12-19T02:31:40.492Z,71.24
2018-12-19T02:34:07.791Z,71.49
2018-12-19T02:36:34.877Z,71.43
2018-12-19T02:39:01.952Z,71.48
2018-12-19T02:41:29.138Z,71.45
2018-12-19T02:43:56.284Z,71.50
2018-12-19T02:46:23.355Z,71.37
2018-12-19T02:48:50.443Z,71.53
2018-12-19T02:51:17.526Z,72.56
2018-12-19T02:53:44.647Z,73.30
2018-12-19T02:56:11.741Z,74.11
2018-12-19T02:58:38.776Z,73.55
2018-12-19T03:01:05.823Z,72.99
2018-12-19T03:03:32.869Z,71.93
2018-12-19T03:05:59.953Z,71.76
2018-12-19T03:08:26.986Z,72.45
2018-12-19T03:10:54.224Z,71.96
2018-12-19T03:13:21.483Z,72.33
2018-12-19T03:15:49.099Z,71.83
2018-12-19T03:18:16.184Z,71.74
2018-12-19T03:20:43.192Z,71.78
2018-12-19T03:23:10.884Z,71.72
2018-12-19T03:25:37.960Z,71.97
2018-12-19T03:28:05.151Z,71.75
2018-12-19T03:30:32.299Z,71.80
2018-12-19T03:32:59.937Z,72.03
2018-12-19T03:35:27.086Z,72.02
2018-12-19T03:37:54.222Z,72.11
2018-12-19T03:40:21.507Z,71.98
2018-12-19T03:42:48.556Z,72.27
2018-12-19T03:45:15.642Z,72.08
2018-12-19T03:47:42.757Z,72.57
2018-12-19T03:50:10.250Z,72.57
2018-12-19T03:52:37.460Z,72.61
2018-12-19T03:55:04.627Z,72.79
2018-12-19T03:57:32.115Z,71.95
2018-12-19T03:59:59.176Z,71.02
2018-12-19T04:02:26.371Z,70.34
2018-12-19T04:04:54.419Z,69.76
2018-12-19T04:07:21.555Z,69.48
2018-12-19T04:09:48.752Z,70.03
2018-12-19T04:12:15.937Z,70.57
2018-12-19T04:14:43.114Z,71.11
2018-12-19T04:17:10.192Z,71.46
2018-12-19T04:19:37.243Z,71.72
2018-12-19T04:22:04.334Z,72.18
2018-12-19T04:24:31.486Z,72.68
2018-12-19T04:26:58.660Z,72.93
2018-12-19T04:29:25.750Z,72.71
2018-12-19T04:31:53.037Z,72.37
2018-12-19T04:34:20.146Z,72.51
2018-12-19T04:36:48.169Z,72.46
2018-12-19T04:39:15.316Z,72.36
2018-12-19T04:41:42.470Z,72.51
2018-12-19T04:44:09.492Z,72.94
2018-12-19T04:46:36.552Z,72.91
2018-12-19T04:49:03.603Z,73.21
2018-12-19T04:51:30.670Z,72.88
2018-12-19T04:53:57.704Z,73.00
2018-12-19T04:56:24.794Z,72.53
2018-12-19T04:58:52.462Z,72.93
2018-12-19T05:01:19.619Z,72.93
2018-12-19T05:03:46.755Z,72.40
2018-12-19T05:06:13.801Z,73.16
2018-12-19T05:08:40.856Z,73.50
2018-12-19T05:11:07.921Z,73.50
2018-12-19T05:13:35.002Z,73.13
2018-12-19T05:16:02.137Z,73.33
2018-12-19T05:18:29.348Z,72.86
2018-12-19T05:20:56.532Z,72.27
2018-12-19T05:23:23.585Z,72.16
2018-12-19T05:25:50.657Z,72.89
2018-12-19T05:28:17.744Z,72.40
2018-12-19T05:30:44.922Z,71.93
2018-12-19T05:33:11.977Z,71.94
2018-12-19T05:35:39.136Z,71.81
2018-12-19T05:38:06.303Z,72.04
2018-12-19T05:40:33.491Z,72.44
2018-12-19T05:43:00.667Z,72.33
2018-12-19T05:45:27.808Z,72.78
2018-12-19T05:47:56.984Z,73.20
2018-12-19T05:50:27.042Z,73.50
2018-12-19T05:52:54.090Z,74.20
2018-12-19T05:55:21.752Z,74.84
2018-12-19T05:57:51.369Z,75.27
2018-12-19T06:00:19.308Z,74.53
2018-12-19T06:02:46.378Z,75.52
2018-12-19T06:05:13.427Z,75.79
2018-12-19T06:07:41.932Z,75.48
2018-12-19T06:10:09.133Z,76.57
2018-12-19T06:12:36.211Z,77.02
2018-12-19T06:15:03.680Z,77.52
2018-12-19T06:17:30.782Z,77.66
2018-12-19T06:19:57.828Z,77.77
2018-12-19T06:22:24.912Z,77.71
2018-12-19T06:24:52.015Z,77.46
2018-12-19T06:27:19.102Z,77.23
2018-12-19T06:29:46.255Z,77.21
2018-12-19T06:32:13.360Z,77.05
2018-12-19T06:34:40.537Z,77.08
2018-12-19T06:37:07.758Z,77.28
2018-12-19T06:39:34.835Z,77.22
2018-12-19T06:42:01.899Z,77.33
2018-12-19T06:44:28.957Z,78.32
2018-12-19T06:46:56.054Z,78.42
2018-12-19T06:49:23.219Z,78.59
2018-12-19T06:51:50.307Z,79.40
2018-12-19T06:54:17.448Z,79.27
2018-12-19T06:56:44.612Z,79.87
2018-12-19T06:59:11.719Z,80.70
2018-12-19T07:01:38.792Z,81.88
2018-12-19T07:04:05.896Z,81.48
2018-12-19T07:06:32.944Z,81.42
2018-12-19T07:08:59.999Z,81.15
2018-12-19T07:11:27.215Z,81.52
2018-12-19T07:13:54.348Z,81.62
2018-12-19T07:16:21.405Z,81.93
2018-12-19T07:18:48.579Z,82.13
2018-12-19T07:21:15.981Z,82.69
2018-12-19T07:23:43.164Z,83.02
2018-12-19T07:26:10.287Z,82.39
2018-12-19T07:28:38.187Z,82.26
2018-12-19T07:31:05.269Z,82.49
2018-12-19T07:33:32.372Z,83.02
2018-12-19T07:35:59.439Z,83.06
2018-12-19T07:38:26.667Z,82.83
2018-12-19T07:40:53.811Z,82.76
2018-12-19T07:43:21.008Z,82.80
2018-12-19T07:45:48.137Z,82.43
2018-12-19T07:48:17.030Z,81.98
2018-12-19T07:50:44.138Z,81.44
2018-12-19T07:53:11.364Z,81.47
2018-12-19T07:55:39.730Z,81.84
2018-12-19T07:58:06.924Z,82.13
2018-12-19T08:00:34.745Z,82.08
2018-12-19T08:03:01.874Z,82.61
2018-12-19T08:05:29.989Z,82.73
2018-12-19T08:07:57.167Z,82.63
2018-12-19T08:10:24.455Z,82.74
2018-12-19T08:12:51.663Z,82.90
2018-12-19T08:15:18.772Z,82.95
2018-12-19T08:17:45.899Z,82.59
2018-12-19T08:20:13.097Z,82.51
2018-12-19T08:22:40.228Z,82.46
2018-12-19T08:25:07.380Z,82.14
2018-12-19T08:27:34.488Z,82.17
2018-12-19T08:30:02.188Z,82.13
2018-12-19T08:32:29.417Z,82.12
2018-12-19T08:34:56.824Z,82.17
2018-12-19T08:37:24.593Z,82.03
2018-12-19T08:39:52.320Z,82.04
2018-12-19T08:42:19.583Z,81.74
2018-12-19T08:44:47.771Z,81.68
2018-12-19T08:47:14.826Z,81.99
2018-12-19T08:49:41.916Z,82.64
2018-12-19T08:52:09.154Z,82.32
2018-12-19T08:54:36.240Z,82.79
2018-12-19T08:57:03.389Z,83.83
2018-12-19T08:59:30.504Z,83.77
2018-12-19T09:01:57.609Z,84.13
2018-12-19T09:04:25.949Z,84.26
2018-12-19T09:06:53.680Z,84.86
2018-12-19T09:09:20.851Z,85.02
2018-12-19T09:11:48.088Z,84.64
2018-12-19T09:14:15.271Z,84.28
2018-12-19T09:16:42.606Z,84.98
2018-12-19T09:19:09.870Z,85.17
2018-12-19T09:21:36.985Z,84.67
2018-12-19T09:24:04.570Z,84.53
2018-12-19T09:26:31.686Z,84.26
2018-12-19T09:28:58.768Z,84.92
2018-12-19T09:31:26.073Z,84.13
2018-12-19T09:33:53.267Z,84.08
2018-12-19T09:36:20.295Z,84.31
2018-12-19T09:38:47.451Z,84.71
2018-12-19T09:41:14.818Z,84.75
2018-12-19T09:43:41.959Z,83.77
2018-12-19T09:46:09.790Z,83.08
2018-12-19T09:48:39.148Z,83.56
2018-12-19T09:51:06.909Z,83.28
2018-12-19T09:53:34.536Z,83.96
2018-12-19T09:56:02.380Z,83.96
2018-12-19T09:58:29.854Z,83.29
2018-12-19T10:00:57.287Z,83.50
2018-12-19T10:03:24.576Z,83.27
2018-12-19T10:05:56.227Z,83.24
2018-12-19T10:08:31.434Z,82.78
2018-12-19T10:10:59.185Z,82.32
2018-12-19T10:13:26.395Z,82.40
2018-12-19T10:15:54.130Z,82.66
2018-12-19T10:18:22.732Z,82.63
2018-12-19T10:20:49.827Z,82.30
2018-12-19T10:23:17.150Z,82.15
2018-12-19T10:25:47.010Z,81.74
2018-12-19T10:28:16.131Z,81.58
2018-12-19T10:30:46.700Z,81.98
2018-12-19T10:33:14.875Z,82.00
2018-12-19T10:35:42.153Z,81.38
2018-12-19T10:38:10.277Z,81.59
2018-12-19T10:40:37.490Z,81.68
2018-12-19T10:43:04.892Z,82.34
2018-12-19T10:45:33.005Z,82.18
2018-12-19T10:48:00.164Z,81.75
2018-12-19T10:50:27.387Z,81.54
2018-12-19T10:52:54.648Z,81.49
2018-12-19T10:55:21.860Z,81.65
2018-12-19T10:57:50.627Z,81.62
2018-12-19T11:00:23.442Z,81.43
2018-12-19T11:02:50.808Z,81.12
2018-12-19T11:05:18.986Z,80.79
2018-12-19T11:07:46.777Z,80.77
2018-12-19T11:10:13.920Z,80.95
2018-12-19T11:12:41.179Z,81.08
2018-12-19T11:15:09.902Z,80.56
2018-12-19T11:17:37.277Z,80.59
2018-12-19T11:20:05.205Z,80.50
2018-12-19T11:22:32.392Z,80.16
2018-12-19T11:24:59.992Z,80.32
2018-12-19T11:27:27.104Z,80.37
2018-12-19T11:29:54.911Z,80.14
2018-12-19T11:32:22.065Z,80.44
2018-12-19T11:34:49.420Z,79.92
2018-12-19T11:37:17.131Z,79.91
2018-12-19T11:39:44.394Z,79.77
2018-12-19T11:42:11.515Z,80.17
2018-12-19T11:44:38.929Z,80.53
2018-12-19T11:47:06.173Z,80.24
2018-12-19T11:49:33.309Z,79.79
2018-12-19T11:52:00.627Z,79.73
2018-12-19T11:54:27.757Z,80.14
2018-12-19T11:56:54.884Z,79.30
2018-12-19T11:59:22.205Z,79.53
2018-12-19T12:01:49.411Z,79.65
2018-12-19T12:04:17.601Z,79.61
2018-12-19T12:06:46.928Z,79.19
2018-12-19T12:09:14.037Z,79.57
2018-12-19T12:11:45.591Z,79.11
2018-12-19T12:14:10.380Z,78.62
2018-12-19T12:16:37.571Z,78.50
2018-12-19T12:19:04.645Z,78.97
2018-12-19T12:21:32.835Z,79.23
2018-12-19T12:24:00.063Z,79.86
2018-12-19T12:26:27.540Z,79.93
2018-12-19T12:28:54.676Z,79.33
2018-12-19T12:31:22.440Z,78.63
2018-12-19T12:33:50.777Z,78.64
2018-12-19T12:36:18.674Z,78.88
2018-12-19T12:38:45.877Z,78.84
2018-12-19T12:41:13.007Z,78.49
2018-12-19T12:43:40.311Z,78.71
2018-12-19T12:46:07.544Z,78.98
2018-12-19T12:48:36.844Z,79.26
2018-12-19T12:51:04.629Z,79.16
2018-12-19T12:53:31.743Z,78.90
2018-12-19T12:55:58.857Z,79.05
2018-12-19T12:58:26.056Z,78.95
2018-12-19T13:00:53.284Z,78.92
2018-12-19T13:03:20.516Z,78.55
2018-12-19T13:05:47.675Z,78.86
2018-12-19T13:08:15.319Z,78.54
2018-12-19T13:10:47.524Z,77.86
2018-12-19T13:13:14.799Z,77.84
2018-12-19T13:15:46.663Z,78.20
2018-12-19T13:18:14.739Z,78.68
2018-12-19T13:20:42.158Z,78.19
2018-12-19T13:23:09.360Z,78.18
2018-12-19T13:25:36.497Z,78.58
2018-12-19T13:28:03.592Z,77.79
2018-12-19T13:30:30.714Z,76.76
2018-12-19T13:32:58.111Z,77.54
2018-12-19T13:35:25.295Z,76.49
2018-12-19T13:37:52.479Z,76.49
2018-12-19T13:40:19.613Z,76.33
2018-12-19T13:42:47.289Z,76.25
2018-12-19T13:45:14.494Z,76.67
2018-12-19T13:47:41.810Z,76.26
2018-12-19T13:50:08.981Z,76.40
2018-12-19T13:52:36.536Z,76.43
2018-12-19T13:55:04.105Z,76.83
2018-12-19T13:57:31.754Z,77.18
2018-12-19T13:59:58.929Z,76.94
2018-12-19T14:02:26.046Z,76.96
2018-12-19T14:04:53.748Z,76.07
2018-12-19T14:07:20.855Z,76.38
2018-12-19T14:09:48.417Z,76.09
2018-12-19T14:12:15.676Z,75.12
2018-12-19T14:14:42.896Z,75.47
2018-12-19T14:17:10.093Z,75.52
2018-12-19T14:19:37.445Z,74.98
2018-12-19T14:22:04.585Z,75.37
2018-12-19T14:24:31.824Z,75.11
2018-12-19T14:26:58.996Z,75.67
2018-12-19T14:29:26.091Z,76.38
2018-12-19T14:31:53.183Z,76.44
2018-12-19T14:34:21.044Z,76.32
2018-12-19T14:36:48.714Z,75.84
2018-12-19T14:39:15.910Z,75.84
2018-12-19T14:41:43.071Z,75.88
2018-12-19T14:44:10.952Z,76.02
2018-12-19T14:46:39.463Z,75.82
2018-12-19T14:49:06.659Z,75.57
2018-12-19T14:51:33.852Z,76.06
2018-12-19T14:54:01.693Z,76.63
2018-12-19T14:56:28.917Z,77.72
2018-12-19T14:58:56.071Z,77.29
2018-12-19T15:01:23.269Z,78.09
2018-12-19T15:03:50.462Z,77.25
2018-12-19T15:06:17.652Z,77.53
2018-12-19T15:08:44.727Z,77.80
2018-12-19T15:11:12.020Z,77.41
2018-12-19T15:13:39.392Z,77.42
2018-12-19T15:16:06.729Z,77.97
2018-12-19T15:18:33.832Z,78.54
2018-12-19T15:21:01.125Z,78.46
2018-12-19T15:23:29.109Z,78.90
2018-12-19T15:25:56.279Z,78.50
2018-12-19T15:28:23.357Z,78.52
2018-12-19T15:30:50.460Z,79.18
2018-12-19T15:33:17.564Z,79.00
2018-12-19T15:35:44.744Z,78.59
2018-12-19T15:38:11.900Z,78.67
2018-12-19T15:40:40.081Z,78.54
2018-12-19T15:43:07.252Z,78.49
2018-12-19T15:45:34.443Z,78.73
2018-12-19T15:48:01.935Z,78.81
2018-12-19T15:50:29.160Z,78.45
2018-12-19T15:52:56.310Z,78.62
2018-12-19T15:55:23.445Z,78.76
2018-12-19T15:57:50.596Z,78.71
2018-12-19T16:00:17.839Z,78.92
2018-12-19T16:02:45.021Z,79.01
2018-12-19T16:05:12.084Z,78.90
2018-12-19T16:07:40.517Z,78.79
2018-12-19T16:10:07.759Z,78.92
2018-12-19T16:12:39.214Z,78.86
2018-12-19T16:15:04.717Z,79.18
2018-12-19T16:17:31.961Z,79.48
2018-12-19T16:19:59.155Z,78.86
2018-12-19T16:22:26.572Z,79.58
2018-12-19T16:24:54.672Z,79.75
2018-12-19T16:27:22.203Z,79.79
2018-12-19T16:29:49.284Z,79.31
2018-12-19T16:32:16.368Z,79.47
2018-12-19T16:34:43.592Z,79.22
2018-12-19T16:37:10.739Z,79.00
2018-12-19T16:39:37.898Z,79.54
2018-12-19T16:42:05.057Z,79.61
2018-12-19T16:44:32.124Z,80.35
2018-12-19T16:46:59.200Z,80.85
2018-12-19T16:49:26.315Z,81.04
2018-12-19T16:51:53.660Z,80.81
2018-12-19T16:54:20.787Z,80.31
2018-12-19T16:56:47.926Z,80.00
2018-12-19T16:59:15.224Z,80.50
2018-12-19T17:01:42.344Z,80.89
2018-12-19T17:04:09.416Z,79.88
2018-12-19T17:06:36.642Z,79.98
2018-12-19T17:09:06.660Z,80.02
2018-12-19T17:11:33.873Z,80.60
2018-12-19T17:14:00.961Z,81.05
2018-12-19T17:16:28.010Z,80.96
2018-12-19T17:18:55.672Z,80.56
2018-12-19T17:21:22.837Z,80.63
2018-12-19T17:23:49.919Z,80.77
2018-12-19T17:26:17.028Z,80.12
2018-12-19T17:28:45.116Z,79.70
2018-12-19T17:31:12.248Z,79.89
2018-12-19T17:33:39.320Z,79.88
2018-12-19T17:36:06.387Z,80.29
2018-12-19T17:38:33.547Z,80.62
2018-12-19T17:41:00.625Z,80.53
2018-12-19T17:43:27.759Z,80.34
2018-12-19T17:45:54.913Z,79.51
2018-12-19T17:48:23.051Z,79.27
2018-12-19T17:50:50.221Z,79.78
2018-12-19T17:53:17.491Z,80.06
2018-12-19T17:55:46.684Z,80.09
2018-12-19T17:58:13.762Z,80.03
2018-12-19T18:00:41.099Z,79.82
2018-12-19T18:03:08.190Z,79.88
2018-12-19T18:05:35.436Z,79.78
2018-12-19T18:08:02.780Z,80.52
2018-12-19T18:10:29.880Z,81.17
2018-12-19T18:12:56.975Z,81.85
2018-12-19T18:15:24.185Z,81.89
2018-12-19T18:17:52.170Z,82.23
2018-12-19T18:20:19.360Z,81.21
2018-12-19T18:22:46.512Z,81.17
2018-12-19T18:25:13.792Z,80.85
2018-12-19T18:27:40.986Z,80.13
2018-12-19T18:30:08.654Z,80.82
2018-12-19T18:32:35.840Z,80.19
2018-12-19T18:35:02.924Z,79.82
2018-12-19T18:37:30.976Z,80.31
2018-12-19T18:39:58.089Z,79.99
2018-12-19T18:42:25.726Z,80.53
2018-12-19T18:44:52.811Z,80.94
2018-12-19T18:47:20.007Z,81.53
2018-12-19T18:49:47.195Z,81.56
2018-12-19T18:52:14.468Z,82.25
2018-12-19T18:54:41.664Z,82.09
2018-12-19T18:57:08.913Z,82.01
2018-12-19T18:59:36.978Z,81.66
2018-12-19T19:02:04.171Z,81.25
2018-12-19T19:04:31.322Z,80.39
2018-12-19T19:06:58.543Z,80.78
2018-12-19T19:09:25.837Z,80.15
2018-12-19T19:11:53.588Z,80.55
2018-12-19T19:14:20.900Z,80.69
2018-12-19T19:16:48.138Z,80.75
2018-12-19T19:19:15.374Z,80.16
2018-12-19T19:21:42.653Z,80.24
2018-12-19T19:24:09.797Z,80.43
2018-12-19T19:26:36.882Z,80.31
2018-12-19T19:29:04.191Z,80.28
2018-12-19T19:31:31.353Z,79.97
2018-12-19T19:33:58.521Z,79.46
2018-12-19T19:36:25.655Z,79.91
2018-12-19T19:38:52.793Z,78.88
2018-12-19T19:41:19.920Z,79.38
2018-12-19T19:43:47.216Z,79.13
2018-12-19T19:46:14.542Z,78.90
2018-12-19T19:48:42.546Z,79.47
2018-12-19T19:51:09.771Z,79.83
2018-12-19T19:53:37.363Z,81.15
2018-12-19T19:56:04.704Z,80.38
2018-12-19T19:58:31.900Z,79.56
2018-12-19T20:01:16.550Z,78.41
2018-12-19T20:03:45.019Z,79.35
2018-12-19T20:06:12.137Z,79.72
2018-12-19T20:08:39.192Z,79.72
2018-12-19T20:11:06.973Z,79.44
2018-12-19T20:13:34.028Z,79.54
2018-12-19T20:16:01.094Z,79.18
2018-12-19T20:18:28.457Z,78.48
2018-12-19T20:20:55.536Z,78.10
2018-12-19T20:23:22.740Z,77.40
2018-12-19T20:25:49.797Z,77.55
2018-12-19T20:28:17.044Z,77.62
2018-12-19T20:30:44.244Z,77.81
2018-12-19T20:33:11.335Z,77.84
2018-12-19T20:35:39.058Z,77.93
2018-12-19T20:38:06.181Z,78.83
2018-12-19T20:40:33.287Z,78.79
2018-12-19T20:43:06.354Z,78.32
2018-12-19T20:45:29.458Z,78.59
2018-12-19T20:47:56.563Z,79.10
2018-12-19T20:50:23.645Z,78.77
2018-12-19T20:52:50.823Z,78.57
2018-12-19T20:55:18.052Z,78.60
2018-12-19T20:57:45.403Z,78.11
2018-12-19T21:00:12.506Z,78.40
2018-12-19T21:02:40.434Z,78.46
2018-12-19T21:05:07.483Z,78.19
2018-12-19T21:07:34.619Z,78.11
2018-12-19T21:10:01.743Z,78.59
2018-12-19T21:12:28.860Z,78.79
2018-12-19T21:14:55.969Z,78.44
2018-12-19T21:17:28.808Z,78.46
2018-12-19T21:19:55.891Z,78.98
2018-12-19T21:22:23.006Z,78.86
2018-12-19T21:24:50.102Z,78.95
2018-12-19T21:27:17.906Z,79.50
2018-12-19T21:29:44.980Z,79.94
2018-12-19T21:32:12.100Z,79.78
2018-12-19T21:34:39.169Z,80.17
2018-12-19T21:37:06.504Z,80.75
2018-12-19T21:39:33.591Z,80.19
2018-12-19T21:42:00.817Z,80.09
2018-12-19T21:44:28.101Z,79.52
2018-12-19T21:46:55.337Z,79.75
2018-12-19T21:49:22.464Z,79.85
2018-12-19T21:51:49.594Z,80.02
2018-12-19T21:54:16.830Z,80.10
2018-12-19T21:56:44.036Z,79.55
2018-12-19T21:59:11.313Z,79.98
2018-12-19T22:01:38.542Z,79.70
2018-12-19T22:04:05.697Z,80.19
2018-12-19T22:06:32.875Z,80.09
2018-12-19T22:09:00.127Z,80.35
2018-12-19T22:11:27.419Z,80.39
2018-12-19T22:14:00.591Z,80.54
2018-12-19T22:16:29.617Z,80.60
2018-12-19T22:18:58.899Z,80.61
2018-12-19T22:21:26.064Z,80.42
2018-12-19T22:23:53.197Z,79.77
2018-12-19T22:26:20.520Z,79.76
2018-12-19T22:28:47.812Z,80.46
2018-12-19T22:31:15.098Z,80.57
2018-12-19T22:33:42.318Z,80.95
2018-12-19T22:36:09.518Z,81.64
2018-12-19T22:38:36.772Z,81.51
2018-12-19T22:41:03.886Z,80.56
2018-12-19T22:43:31.159Z,80.54
2018-12-19T22:45:58.336Z,81.24
2018-12-19T22:48:25.509Z,80.78
2018-12-19T22:50:52.755Z,80.90
2018-12-19T22:53:20.088Z,80.89
2018-12-19T22:55:47.299Z,80.98
2018-12-19T22:58:14.554Z,80.56
2018-12-19T23:00:47.864Z,80.27
2018-12-19T23:03:15.069Z,80.28
2018-12-19T23:05:47.917Z,80.06
2018-12-19T23:08:15.343Z,80.36
2018-12-19T23:10:42.540Z,80.15
2018-12-19T23:13:09.779Z,80.33
2018-12-19T23:15:36.963Z,80.63
2018-12-19T23:18:10.167Z,80.84
2018-12-19T23:20:37.363Z,81.70
2018-12-19T23:23:04.469Z,81.03
2018-12-19T23:25:32.410Z,81.08
2018-12-19T23:27:59.521Z,80.87
2018-12-19T23:30:26.819Z,81.15
2018-12-19T23:32:54.021Z,81.59
2018-12-19T23:35:21.201Z,80.50
2018-12-19T23:37:48.267Z,80.38
2018-12-19T23:40:15.355Z,80.30
2018-12-19T23:42:42.507Z,80.24
2018-12-19T23:45:10.357Z,80.51
2018-12-19T23:47:37.603Z,80.71
2018-12-19T23:50:04.815Z,80.98
2018-12-19T23:52:31.927Z,81.02
2018-12-19T23:54:59.109Z,80.77
2018-12-19T23:57:26.203Z,80.73
2018-12-19T23:59:53.423Z,80.80
